Lincoln, United Kingdom
Current Conditions -  °F | °C
As of 5:50 AM on Sunday 26 Oct 2014 (Local Time) from EGXW Reporting Station
Scattered Clouds Scattered Clouds  
Wind Chill: 11°   Ceiling: Unl
Heat Index: 11°   Visibility: 6mi
Dew Point:   Wind: 18mph
Humidity: 88%   Direction: 210°SSW
Pressure: 30"   Gusts: NA
Location:  53.23°N, 0.54°W
Report Text: EGXW 260450Z 21016KT 9999 FEW032 SCT240 11/09 Q1016 BLU
Loading
Personal Weather Stations






























Interactive Weather Map
Tropical Storm Tracking
New forecast layout! Learn more

10-Day Weather Forecast

Advertisements
Track Severe Weather on mobile